Time;durP1;ratioP1;P1;durP2;ratioP2;P2;SDS_P1;SDS_P2;PMS_P1;PMS_P2;Temp;Humidity;BMP_temperature;BMP_pressure;BME280_temperature;BME280_humidity;BME280_pressure;Samples;Min_cycle;Max_cycle;Signal;HPM_P1;HPM_P2
2023/08/12 00:00:16;;;;;;;3.42;3.13;;;22.00;99.90;;;;;;5010456;28;20022;-57
2023/08/12 00:02:43;;;;;;;5.38;3.60;;;21.90;99.90;;;;;;5011564;28;20022;-57
2023/08/12 00:07:35;;;;;;;4.50;3.70;;;21.90;99.90;;;;;;5069298;22;20169;-54
2023/08/12 00:10:03;;;;;;;11.25;5.00;;;21.90;99.90;;;;;;5051827;28;20025;-53
2023/08/12 00:12:31;;;;;;;6.35;4.15;;;21.90;99.90;;;;;;5053107;28;20025;-57
2023/08/12 00:14:56;;;;;;;6.65;3.70;;;22.00;99.90;;;;;;5053243;28;20032;-53
2023/08/12 00:17:22;;;;;;;4.50;3.40;;;22.00;99.90;;;;;;5035229;28;20116;-55
2023/08/12 00:19:47;;;;;;;6.70;4.22;;;22.00;99.90;;;;;;5033329;28;20025;-55
2023/08/12 00:22:13;;;;;;;4.32;3.88;;;22.00;99.90;;;;;;5032747;28;20025;-52
2023/08/12 00:24:39;;;;;;;3.72;3.38;;;22.00;99.90;;;;;;5033212;28;20038;-56
2023/08/12 00:27:06;;;;;;;9.20;4.25;;;22.00;99.90;;;;;;5015305;28;20022;-53
2023/08/12 00:29:32;;;;;;;6.05;4.57;;;22.00;99.90;;;;;;5015525;28;20509;-54
2023/08/12 00:31:58;;;;;;;10.88;5.63;;;22.10;99.90;;;;;;5015379;28;20112;-53
2023/08/12 00:34:23;;;;;;;9.18;4.85;;;22.10;99.90;;;;;;5015331;28;20207;-53
2023/08/12 00:36:50;;;;;;;7.13;4.82;;;22.10;99.90;;;;;;5032680;28;20083;-55
2023/08/12 00:39:15;;;;;;;6.28;4.97;;;21.90;99.90;;;;;;5032869;28;20477;-57
2023/08/12 00:41:41;;;;;;;9.55;4.60;;;21.90;99.90;;;;;;5014858;28;20044;-54
2023/08/12 00:44:07;;;;;;;11.13;4.95;;;21.80;99.90;;;;;;5014915;28;20108;-56
2023/08/12 00:46:33;;;;;;;10.93;4.85;;;21.90;99.90;;;;;;5032394;28;20112;-57
2023/08/12 00:48:59;;;;;;;10.60;5.22;;;21.80;99.90;;;;;;5032715;28;20036;-57
2023/08/12 00:51:25;;;;;;;12.43;4.93;;;21.80;99.90;;;;;;5032267;28;20112;-55
2023/08/12 00:53:52;;;;;;;5.70;4.90;;;21.80;99.90;;;;;;5032863;28;20439;-56
2023/08/12 00:56:18;;;;;;;5.35;4.85;;;21.80;99.90;;;;;;5032528;28;20108;-51
2023/08/12 00:58:45;;;;;;;7.63;4.03;;;21.70;99.90;;;;;;5032456;28;20057;-55
2023/08/12 01:01:11;;;;;;;9.48;5.47;;;21.70;99.90;;;;;;5014394;28;20128;-55
2023/08/12 01:03:37;;;;;;;12.27;5.63;;;21.70;99.90;;;;;;5032264;28;20045;-54
2023/08/12 01:06:03;;;;;;;6.38;4.63;;;21.70;99.90;;;;;;5031680;28;20037;-58
2023/08/12 01:08:31;;;;;;;30.27;6.78;;;21.70;99.90;;;;;;5032237;28;20032;-57
2023/08/12 01:11:37;;;;;;;7.25;4.55;;;21.70;99.90;;;;;;5032048;28;20500;-49
2023/08/12 01:14:13;;;;;;;5.22;4.18;;;21.80;99.90;;;;;;5032065;28;20025;-56
2023/08/12 01:16:43;;;;;;;8.48;4.85;;;21.80;99.90;;;;;;5014456;28;20025;-58
2023/08/12 01:19:14;;;;;;;5.45;4.70;;;21.80;99.90;;;;;;5032047;28;20076;-53
2023/08/12 01:21:43;;;;;;;8.98;4.65;;;21.80;99.90;;;;;;5031915;28;20014;-56
2023/08/12 01:24:09;;;;;;;4.40;3.92;;;21.80;99.90;;;;;;5032099;28;20060;-55
2023/08/12 01:26:34;;;;;;;8.02;4.55;;;21.80;99.90;;;;;;5030945;28;20447;-49
2023/08/12 01:29:00;;;;;;;5.15;4.38;;;21.80;99.90;;;;;;5031742;28;20034;-56
2023/08/12 01:31:36;;;;;;;6.72;4.32;;;21.80;99.90;;;;;;5031465;28;20397;-59
2023/08/12 01:34:11;;;;;;;8.20;4.00;;;21.80;99.90;;;;;;5030856;28;20030;-59
2023/08/12 01:36:38;;;;;;;13.07;5.18;;;21.70;99.90;;;;;;5014243;28;20433;-56
2023/08/12 01:39:05;;;;;;;8.13;4.00;;;21.70;99.90;;;;;;5013876;28;20071;-57
2023/08/12 01:41:31;;;;;;;9.05;4.20;;;21.70;99.90;;;;;;5031671;28;20021;-56
2023/08/12 01:43:57;;;;;;;6.35;4.85;;;21.60;99.90;;;;;;5031600;28;20056;-57
2023/08/12 01:46:22;;;;;;;6.65;5.13;;;21.50;99.90;;;;;;5031469;28;20057;-58
2023/08/12 01:48:48;;;;;;;7.50;4.97;;;21.50;99.90;;;;;;5031556;28;20037;-56
2023/08/12 01:51:13;;;;;;;5.28;4.15;;;21.40;99.90;;;;;;5031368;28;20026;-53
2023/08/12 01:53:39;;;;;;;8.68;5.15;;;21.40;99.90;;;;;;5031300;28;20108;-54
2023/08/12 01:56:04;;;;;;;8.80;4.97;;;21.40;99.90;;;;;;5031325;28;20029;-53
2023/08/12 01:58:30;;;;;;;5.75;4.18;;;21.40;99.90;;;;;;5031410;28;20280;-54
2023/08/12 02:00:55;;;;;;;5.18;3.90;;;21.40;99.90;;;;;;5013440;28;20026;-54
2023/08/12 02:03:21;;;;;;;9.38;4.53;;;21.40;99.90;;;;;;5031517;28;20428;-59
2023/08/12 02:05:46;;;;;;;6.15;4.25;;;21.50;99.90;;;;;;5031208;28;20034;-57
2023/08/12 02:08:13;;;;;;;7.82;5.03;;;21.10;99.90;;;;;;5031473;28;20117;-55
2023/08/12 02:10:38;;;;;;;8.15;5.47;;;21.40;99.90;;;;;;5031137;28;20088;-54
2023/08/12 02:13:04;;;;;;;13.18;5.72;;;21.30;99.90;;;;;;5031354;28;20389;-54
2023/08/12 02:15:30;;;;;;;9.13;5.30;;;21.30;99.90;;;;;;5031195;28;20049;-56
2023/08/12 02:17:55;;;;;;;8.18;5.60;;;21.30;99.90;;;;;;5031331;28;20053;-58
2023/08/12 02:20:21;;;;;;;6.57;5.18;;;21.30;99.90;;;;;;5031161;28;20024;-54
2023/08/12 02:22:46;;;;;;;6.07;4.80;;;21.20;99.90;;;;;;5031226;28;20028;-54
2023/08/12 02:25:12;;;;;;;12.07;6.75;;;21.30;99.90;;;;;;5013336;28;20022;-54
2023/08/12 02:27:37;;;;;;;7.13;5.53;;;21.30;99.90;;;;;;5030838;28;20022;-56
2023/08/12 02:30:05;;;;;;;7.40;5.72;;;21.20;99.90;;;;;;5030905;28;20022;-55
2023/08/12 02:32:30;;;;;;;6.55;5.63;;;21.10;99.90;;;;;;5013389;28;20028;-55
2023/08/12 02:34:56;;;;;;;6.78;5.78;;;21.10;99.90;;;;;;5031028;28;20025;-53
2023/08/12 02:37:21;;;;;;;8.93;5.53;;;21.00;99.90;;;;;;5031041;28;20262;-51
2023/08/12 02:39:47;;;;;;;8.55;6.82;;;21.00;99.90;;;;;;5030978;28;20025;-53
2023/08/12 02:42:12;;;;;;;13.52;6.68;;;20.90;99.90;;;;;;5031054;28;20026;-55
2023/08/12 02:44:38;;;;;;;11.80;6.25;;;21.00;99.90;;;;;;5031560;28;20354;-57
2023/08/12 02:47:04;;;;;;;9.70;6.70;;;21.00;99.90;;;;;;5034806;28;20040;-56
2023/08/12 02:49:29;;;;;;;11.77;7.30;;;20.80;99.90;;;;;;5034830;28;20025;-54
2023/08/12 02:51:55;;;;;;;12.70;7.03;;;20.80;99.90;;;;;;5034713;28;20104;-54
2023/08/12 02:54:20;;;;;;;10.77;7.32;;;20.70;99.90;;;;;;5034708;28;20041;-54
2023/08/12 02:56:46;;;;;;;12.98;7.63;;;20.70;99.90;;;;;;5034534;28;20416;-56
2023/08/12 02:59:11;;;;;;;15.68;7.57;;;20.70;99.90;;;;;;5034578;28;20033;-55
2023/08/12 03:01:36;;;;;;;10.93;7.72;;;20.70;99.90;;;;;;5034511;28;20021;-57
2023/08/12 03:04:02;;;;;;;10.90;7.22;;;20.70;99.90;;;;;;5034559;28;20033;-53
2023/08/12 03:06:28;;;;;;;13.50;7.28;;;20.70;99.90;;;;;;5016563;28;20041;-53
2023/08/12 03:08:53;;;;;;;8.10;7.30;;;20.60;99.90;;;;;;5034444;28;20029;-56
2023/08/12 03:11:19;;;;;;;16.58;7.53;;;20.60;99.90;;;;;;5034187;28;20029;-57
2023/08/12 03:13:45;;;;;;;12.48;6.70;;;20.60;99.90;;;;;;5034526;28;20030;-55
2023/08/12 03:16:14;;;;;;;10.40;7.93;;;20.60;99.90;;;;;;5034348;28;20025;-57
2023/08/12 03:18:40;;;;;;;12.50;7.50;;;20.50;99.90;;;;;;5034426;28;20524;-54
2023/08/12 03:21:09;;;;;;;9.68;7.00;;;20.60;99.90;;;;;;5016400;28;20498;-53
2023/08/12 03:23:38;;;;;;;8.40;7.32;;;20.50;99.90;;;;;;5034390;28;20030;-55
2023/08/12 03:26:04;;;;;;;15.60;7.38;;;20.50;99.90;;;;;;5033845;28;20029;-51
2023/08/12 03:28:32;;;;;;;8.65;7.15;;;20.50;99.90;;;;;;5016449;28;20404;-54
2023/08/12 03:30:58;;;;;;;12.15;7.38;;;20.50;99.90;;;;;;5016110;28;20029;-56
2023/08/12 03:33:24;;;;;;;12.15;8.10;;;20.40;99.90;;;;;;5016293;28;20029;-57
2023/08/12 03:35:49;;;;;;;8.48;6.85;;;20.40;99.90;;;;;;5034056;28;20040;-55
2023/08/12 03:38:15;;;;;;;16.40;8.05;;;20.40;99.90;;;;;;5033962;28;20084;-55
2023/08/12 03:40:41;;;;;;;11.77;7.97;;;20.40;99.90;;;;;;5033621;28;20477;-56
2023/08/12 03:43:07;;;;;;;9.45;7.78;;;20.30;99.90;;;;;;5034094;28;20104;-53
2023/08/12 03:45:39;;;;;;;10.85;8.45;;;20.40;99.90;;;;;;5034053;28;20511;-54
2023/08/12 03:48:05;;;;;;;17.73;10.35;;;20.40;99.90;;;;;;5034089;28;20029;-55
2023/08/12 03:50:34;;;;;;;15.60;9.68;;;20.40;99.90;;;;;;5033878;28;20017;-57
2023/08/12 03:52:59;;;;;;;16.05;9.57;;;20.40;99.90;;;;;;5033937;28;20400;-58
2023/08/12 03:55:25;;;;;;;15.10;10.63;;;20.50;99.90;;;;;;5033638;28;20105;-59
2023/08/12 03:57:51;;;;;;;13.32;9.65;;;20.50;99.90;;;;;;5014793;28;20018;-57
2023/08/12 04:00:16;;;;;;;12.70;10.15;;;20.60;99.90;;;;;;5033562;28;20095;-52
2023/08/12 04:02:43;;;;;;;16.67;11.10;;;20.70;99.90;;;;;;5033559;28;20029;-52
2023/08/12 04:05:08;;;;;;;19.40;11.52;;;20.70;99.90;;;;;;5033466;28;20033;-49
2023/08/12 04:07:36;;;;;;;21.20;11.88;;;20.60;99.90;;;;;;5015484;28;20038;-54
2023/08/12 04:10:01;;;;;;;13.15;11.65;;;20.70;99.90;;;;;;5033105;28;20056;-54
2023/08/12 04:12:27;;;;;;;20.77;12.70;;;20.70;99.90;;;;;;5033343;28;20025;-53
2023/08/12 04:14:52;;;;;;;16.85;11.95;;;20.70;99.90;;;;;;5033088;28;20423;-49
2023/08/12 04:17:18;;;;;;;17.95;12.30;;;20.60;99.90;;;;;;5015323;28;20018;-54
2023/08/12 04:19:43;;;;;;;17.95;11.32;;;20.60;99.90;;;;;;5032788;28;20104;-51
2023/08/12 04:22:09;;;;;;;12.75;10.52;;;20.50;99.90;;;;;;5033141;28;20025;-55
2023/08/12 04:24:34;;;;;;;15.40;10.48;;;20.50;99.90;;;;;;5033319;28;20022;-53
2023/08/12 04:27:00;;;;;;;15.13;12.10;;;20.60;99.90;;;;;;5032585;28;20025;-54
2023/08/12 04:29:25;;;;;;;12.75;9.75;;;20.60;99.90;;;;;;5032932;28;20034;-51
2023/08/12 04:31:52;;;;;;;19.55;12.40;;;20.60;99.90;;;;;;5032601;28;20112;-53
2023/08/12 04:34:18;;;;;;;15.45;10.82;;;20.50;99.90;;;;;;5014971;28;20025;-54
2023/08/12 04:36:43;;;;;;;14.18;10.80;;;20.50;99.90;;;;;;5032701;28;20032;-52
2023/08/12 04:39:10;;;;;;;12.55;11.30;;;20.50;99.90;;;;;;5032657;28;20017;-54
2023/08/12 04:41:35;;;;;;;14.52;10.55;;;20.50;99.90;;;;;;5032688;28;20021;-53
2023/08/12 04:44:01;;;;;;;20.20;10.95;;;20.60;99.90;;;;;;5032603;28;20025;-53
2023/08/12 04:46:26;;;;;;;16.48;12.02;;;20.50;99.90;;;;;;5032463;28;20512;-54
2023/08/12 04:48:52;;;;;;;16.17;12.02;;;20.60;99.90;;;;;;5032674;28;20392;-50
2023/08/12 04:51:17;;;;;;;16.17;11.85;;;20.50;99.90;;;;;;5032354;28;20071;-54
2023/08/12 04:53:43;;;;;;;14.23;11.40;;;20.60;99.90;;;;;;5032369;28;20029;-54
2023/08/12 04:56:08;;;;;;;14.40;11.85;;;20.50;99.90;;;;;;5032360;28;20057;-50
2023/08/12 04:58:34;;;;;;;16.33;11.23;;;20.40;99.90;;;;;;5032514;28;20105;-52
2023/08/12 05:01:01;;;;;;;15.23;10.85;;;20.50;99.90;;;;;;5032092;28;20021;-55
2023/08/12 05:03:27;;;;;;;16.38;10.63;;;20.50;99.90;;;;;;5032354;28;20033;-54
2023/08/12 05:05:53;;;;;;;12.93;10.38;;;20.50;99.90;;;;;;5014717;28;20037;-53
2023/08/12 05:08:18;;;;;;;13.80;11.32;;;20.50;99.90;;;;;;5032097;28;20030;-53
2023/08/12 05:10:46;;;;;;;18.02;11.30;;;20.50;99.90;;;;;;5014289;28;20484;-52
2023/08/12 05:13:12;;;;;;;13.73;11.63;;;20.60;99.90;;;;;;5032144;28;20346;-52
2023/08/12 05:15:37;;;;;;;21.38;11.63;;;20.60;99.90;;;;;;5031910;28;20048;-52
2023/08/12 05:18:03;;;;;;;16.27;10.95;;;20.60;99.90;;;;;;5032242;28;20048;-52
2023/08/12 05:20:29;;;;;;;11.60;10.40;;;20.60;99.90;;;;;;5031854;28;20052;-55
2023/08/12 05:22:54;;;;;;;13.25;11.00;;;20.60;99.90;;;;;;5031976;28;20060;-55
2023/08/12 05:25:20;;;;;;;19.33;11.60;;;20.50;99.90;;;;;;5031686;28;20439;-55
2023/08/12 05:27:45;;;;;;;16.48;11.68;;;20.50;99.90;;;;;;5031736;28;20030;-54
2023/08/12 05:30:11;;;;;;;14.98;10.18;;;20.60;99.90;;;;;;5031852;28;20334;-51
2023/08/12 05:32:37;;;;;;;13.48;10.63;;;20.60;99.90;;;;;;5031861;28;20048;-53
2023/08/12 05:35:03;;;;;;;11.85;10.65;;;20.50;99.90;;;;;;5031665;28;20029;-54
2023/08/12 05:37:28;;;;;;;14.52;10.93;;;20.50;99.90;;;;;;5031743;28;20021;-57
2023/08/12 05:39:54;;;;;;;17.25;11.05;;;20.60;99.90;;;;;;5031541;28;20274;-52
2023/08/12 05:42:19;;;;;;;11.88;10.70;;;20.60;99.90;;;;;;5031714;28;20393;-54
2023/08/12 05:44:45;;;;;;;14.20;10.13;;;20.50;99.90;;;;;;5031623;28;20026;-55
2023/08/12 05:47:10;;;;;;;11.65;10.02;;;20.50;99.90;;;;;;5014379;28;20089;-54
2023/08/12 05:49:36;;;;;;;10.15;9.13;;;20.60;99.90;;;;;;5031707;28;20029;-54
2023/08/12 05:52:01;;;;;;;20.58;9.57;;;20.60;99.90;;;;;;5031673;28;20485;-56
2023/08/12 05:54:27;;;;;;;12.20;9.85;;;20.60;99.90;;;;;;5031526;28;20420;-56
2023/08/12 05:56:52;;;;;;;12.38;9.77;;;20.70;99.90;;;;;;5031490;28;20055;-54
2023/08/12 05:59:18;;;;;;;13.02;9.73;;;20.80;99.90;;;;;;5031551;28;20025;-51
2023/08/12 06:01:43;;;;;;;11.60;8.27;;;20.80;99.90;;;;;;5031589;28;20547;-56
2023/08/12 06:04:09;;;;;;;11.90;9.25;;;20.80;99.90;;;;;;5013849;28;20045;-52
2023/08/12 06:06:34;;;;;;;16.52;8.95;;;20.90;99.90;;;;;;5044499;22;20046;-46
2023/08/12 06:09:00;;;;;;;11.73;9.77;;;21.00;99.90;;;;;;5006038;28;20494;-49
2023/08/12 06:11:25;;;;;;;10.30;8.50;;;21.30;99.90;;;;;;4991495;28;20081;-51
2023/08/12 06:13:51;;;;;;;10.10;8.20;;;21.70;99.90;;;;;;5007777;28;20041;-49
2023/08/12 06:16:16;;;;;;;13.90;8.02;;;22.20;99.90;;;;;;5011342;28;20512;-46
2023/08/12 06:18:42;;;;;;;14.88;7.80;;;23.00;99.90;;;;;;5011560;28;20069;-48
2023/08/12 06:21:07;;;;;;;10.80;6.32;;;24.10;99.90;;;;;;5014361;28;20026;-49
2023/08/12 06:23:33;;;;;;;8.18;4.88;;;25.10;99.90;;;;;;5014834;28;20563;-49
2023/08/12 06:25:58;;;;;;;5.90;5.28;;;26.10;99.90;;;;;;5015230;28;20425;-45
2023/08/12 06:28:24;;;;;;;7.25;5.45;;;27.00;99.90;;;;;;4997708;28;20048;-50
2023/08/12 06:30:50;;;;;;;6.45;5.10;;;27.80;99.90;;;;;;4997533;28;20228;-45
2023/08/12 06:33:15;;;;;;;7.35;4.85;;;28.20;99.90;;;;;;5015059;28;20030;-46
2023/08/12 06:35:41;;;;;;;9.02;5.18;;;28.50;99.90;;;;;;5015179;28;20022;-50
2023/08/12 06:38:09;;;;;;;5.47;5.00;;;29.00;99.90;;;;;;5015478;28;20036;-49
2023/08/12 06:40:35;;;;;;;7.38;4.78;;;29.60;99.90;;;;;;5014239;28;20068;-51
2023/08/12 06:43:01;;;;;;;8.43;5.35;;;30.00;99.90;;;;;;5014981;28;20452;-47
2023/08/12 06:45:26;;;;;;;6.82;5.07;;;30.50;99.90;;;;;;5014942;28;20415;-47
2023/08/12 06:47:52;;;;;;;5.50;5.00;;;30.80;99.90;;;;;;5014946;28;20500;-46
2023/08/12 06:50:17;;;;;;;7.28;4.90;;;31.00;99.90;;;;;;5026888;28;20488;-48
2023/08/12 06:52:43;;;;;;;8.30;4.78;;;31.20;99.90;;;;;;4996474;28;20069;-49
2023/08/12 06:55:08;;;;;;;6.35;4.65;;;31.40;99.90;;;;;;5006756;28;20033;-47
2023/08/12 06:57:34;;;;;;;6.63;4.45;;;31.50;99.90;;;;;;5014381;28;20366;-54
2023/08/12 06:59:59;;;;;;;7.88;4.90;;;31.70;99.90;;;;;;5014269;28;20026;-49
2023/08/12 07:02:25;;;;;;;6.47;3.88;;;31.90;99.90;;;;;;5014223;28;20037;-47
2023/08/12 07:04:50;;;;;;;5.72;4.28;;;31.30;99.90;;;;;;5014491;28;20041;-45
2023/08/12 07:07:16;;;;;;;7.60;5.05;;;30.70;99.90;;;;;;5014464;28;20085;-46
2023/08/12 07:09:41;;;;;;;5.93;4.50;;;30.00;99.90;;;;;;5014374;28;20053;-45
2023/08/12 07:12:07;;;;;;;6.28;5.30;;;29.60;99.90;;;;;;5014684;28;20032;-43
2023/08/12 07:14:32;;;;;;;8.18;4.80;;;29.10;99.90;;;;;;4996882;28;20029;-47
2023/08/12 07:16:58;;;;;;;5.30;4.80;;;29.10;99.90;;;;;;5014709;28;20025;-47
2023/08/12 07:19:23;;;;;;;5.95;4.72;;;29.50;99.90;;;;;;5014463;28;20517;-46
2023/08/12 07:21:49;;;;;;;5.10;4.43;;;30.20;99.90;;;;;;5014392;28;20029;-45
2023/08/12 07:24:14;;;;;;;7.45;4.55;;;31.10;99.90;;;;;;5014237;28;20029;-46
2023/08/12 07:26:40;;;;;;;7.35;5.05;;;31.90;99.90;;;;;;5014160;28;20038;-44
2023/08/12 07:29:06;;;;;;;7.47;5.25;;;32.20;99.90;;;;;;5014202;28;20456;-46
2023/08/12 07:31:31;;;;;;;7.72;5.93;;;32.10;99.90;;;;;;5013922;28;20017;-48
2023/08/12 07:33:57;;;;;;;8.18;6.22;;;31.80;99.90;;;;;;5014171;28;20473;-49
2023/08/12 07:36:22;;;;;;;8.27;5.82;;;31.60;99.90;;;;;;5014136;28;20025;-47
2023/08/12 07:38:48;;;;;;;5.80;5.18;;;30.30;99.90;;;;;;5014180;28;20069;-45
2023/08/12 07:41:13;;;;;;;6.82;6.13;;;29.20;99.90;;;;;;5014013;28;20022;-44
2023/08/12 07:43:39;;;;;;;8.38;4.97;;;28.50;99.90;;;;;;5014062;28;20444;-49
2023/08/12 07:46:05;;;;;;;11.52;5.68;;;27.90;99.90;;;;;;5013965;28;20033;-44
2023/08/12 07:48:30;;;;;;;8.35;5.93;;;27.40;99.90;;;;;;5014045;28;20080;-44
2023/08/12 07:50:59;;;;;;;7.10;5.53;;;27.30;99.90;;;;;;5014232;28;20030;-46
2023/08/12 07:53:26;;;;;;;8.30;6.50;;;26.90;99.90;;;;;;5014016;28;20033;-45
2023/08/12 07:55:51;;;;;;;9.20;6.82;;;26.50;99.90;;;;;;5013754;28;20033;-46
2023/08/12 07:58:18;;;;;;;6.88;5.80;;;26.00;99.90;;;;;;5013706;28;20030;-46
2023/08/12 08:00:44;;;;;;;8.35;6.78;;;25.90;99.90;;;;;;5014041;28;20022;-48
2023/08/12 08:03:09;;;;;;;8.50;6.50;;;26.10;99.90;;;;;;5013929;28;20184;-46
2023/08/12 08:05:35;;;;;;;10.68;7.13;;;26.40;99.90;;;;;;5013820;28;20026;-45
2023/08/12 08:08:00;;;;;;;7.78;5.88;;;26.70;99.90;;;;;;5013259;28;20045;-45
2023/08/12 08:10:26;;;;;;;8.15;6.57;;;26.80;99.90;;;;;;5013450;28;20080;-49
2023/08/12 08:12:52;;;;;;;9.93;6.63;;;27.00;99.90;;;;;;5013634;28;20064;-45
2023/08/12 08:15:17;;;;;;;7.00;5.40;;;27.20;99.90;;;;;;5013554;28;20037;-45
2023/08/12 08:17:43;;;;;;;8.35;7.13;;;27.70;99.90;;;;;;5013471;28;20021;-45
2023/08/12 08:20:10;;;;;;;8.50;6.80;;;28.10;99.90;;;;;;5013148;28;20061;-50
2023/08/12 08:22:36;;;;;;;9.10;5.57;;;28.20;99.90;;;;;;5013321;28;20022;-45
2023/08/12 08:25:01;;;;;;;7.15;6.43;;;27.90;99.90;;;;;;5013074;28;20057;-47
2023/08/12 08:27:27;;;;;;;6.57;5.63;;;28.20;99.90;;;;;;5013290;28;20057;-47
2023/08/12 08:29:53;;;;;;;10.55;6.57;;;28.50;99.90;;;;;;5013231;28;20030;-49
2023/08/12 08:32:18;;;;;;;11.05;7.30;;;29.50;99.90;;;;;;5013762;28;20422;-45
2023/08/12 08:34:44;;;;;;;7.88;7.00;;;30.00;99.90;;;;;;5013137;28;20029;-45
2023/08/12 08:37:10;;;;;;;6.68;5.97;;;30.20;99.90;;;;;;4995544;28;20026;-45
2023/08/12 08:39:35;;;;;;;7.05;6.20;;;30.30;99.90;;;;;;5013017;28;20033;-45
2023/08/12 08:42:05;;;;;;;9.43;5.50;;;30.30;99.90;;;;;;5012880;28;20511;-45
2023/08/12 08:44:32;;;;;;;7.60;6.22;;;30.40;99.90;;;;;;5012574;28;20030;-45
2023/08/12 08:46:59;;;;;;;9.00;6.32;;;30.00;99.90;;;;;;5012815;28;20025;-47
2023/08/12 08:49:25;;;;;;;10.35;6.03;;;29.10;99.90;;;;;;5012269;28;20024;-45
2023/08/12 08:51:52;;;;;;;7.78;5.78;;;28.50;99.90;;;;;;5012444;28;20065;-49
2023/08/12 08:54:19;;;;;;;7.30;6.18;;;28.30;99.90;;;;;;5012049;28;20572;-48
2023/08/12 08:56:45;;;;;;;5.85;5.20;;;28.10;99.90;;;;;;5012003;28;20030;-49
2023/08/12 08:59:10;;;;;;;14.82;5.60;;;28.20;99.90;;;;;;4993203;28;20433;-51
2023/08/12 09:01:36;;;;;;;8.85;5.45;;;28.20;99.90;;;;;;5017638;28;20076;-44
2023/08/12 09:04:03;;;;;;;6.68;5.35;;;28.30;99.90;;;;;;5012221;28;20078;-50
2023/08/12 09:06:29;;;;;;;9.35;5.85;;;28.10;99.90;;;;;;5012557;28;20041;-50
2023/08/12 09:08:55;;;;;;;10.45;5.43;;;27.80;99.90;;;;;;5012498;28;20026;-48
2023/08/12 09:11:21;;;;;;;7.88;5.57;;;27.60;99.90;;;;;;5012615;28;20026;-51
2023/08/12 09:13:48;;;;;;;5.88;4.72;;;27.50;99.90;;;;;;4993838;28;20026;-51
2023/08/12 09:16:14;;;;;;;8.35;6.10;;;27.40;99.90;;;;;;5012278;28;20067;-46
2023/08/12 09:18:42;;;;;;;7.32;5.15;;;27.30;99.90;;;;;;5012227;28;20069;-45
2023/08/12 09:21:08;;;;;;;5.53;5.03;;;27.40;99.90;;;;;;4994745;28;20029;-44
2023/08/12 09:23:35;;;;;;;9.40;4.78;;;27.60;99.90;;;;;;5012094;28;20029;-49
2023/08/12 09:26:01;;;;;;;5.15;4.25;;;27.80;99.90;;;;;;5011921;28;20025;-48
2023/08/12 09:28:26;;;;;;;7.13;5.10;;;28.20;99.90;;;;;;5011981;28;20037;-48
2023/08/12 09:30:52;;;;;;;5.20;4.63;;;28.40;99.90;;;;;;5012102;28;20033;-48
2023/08/12 09:33:24;;;;;;;7.50;5.07;;;28.40;99.90;;;;;;5011223;28;20393;-44
2023/08/12 09:35:50;;;;;;;4.47;3.80;;;28.30;99.90;;;;;;4994560;28;20022;-45
2023/08/12 09:38:16;;;;;;;7.03;4.22;;;28.30;99.90;;;;;;5012202;28;20067;-45
2023/08/12 09:40:42;;;;;;;6.00;3.60;;;28.20;99.90;;;;;;5012617;28;20053;-48
2023/08/12 09:43:08;;;;;;;5.30;4.15;;;27.90;99.90;;;;;;4994824;28;20033;-42
2023/08/12 09:45:34;;;;;;;4.45;3.70;;;27.80;99.90;;;;;;5009648;28;20026;-41
2023/08/12 09:48:01;;;;;;;3.75;3.35;;;27.80;99.90;;;;;;4992028;28;20029;-47
2023/08/12 09:50:27;;;;;;;5.50;3.97;;;27.90;99.90;;;;;;5009175;28;20022;-48
2023/08/12 09:52:54;;;;;;;40.17;30.02;;;27.70;99.90;;;;;;5011827;28;20106;-49
2023/08/12 09:55:22;;;;;;;30.75;24.40;;;27.60;99.90;;;;;;5008092;28;20432;-53
2023/08/12 09:57:50;;;;;;;69.35;47.70;;;27.70;99.90;;;;;;5010456;28;20022;-46
2023/08/12 10:00:18;;;;;;;12.88;6.63;;;27.70;99.90;;;;;;5011368;28;20041;-51
2023/08/12 10:02:44;;;;;;;6.85;3.35;;;27.50;99.90;;;;;;5011240;28;20366;-50
2023/08/12 10:05:21;;;;;;;4.88;3.15;;;27.30;99.90;;;;;;5011776;28;20026;-54
2023/08/12 10:07:47;;;;;;;6.43;3.63;;;27.10;99.90;;;;;;5005984;28;20038;-54
2023/08/12 10:10:13;;;;;;;5.28;3.90;;;26.90;99.90;;;;;;5008548;28;20096;-51
2023/08/12 10:12:39;;;;;;;6.10;4.22;;;26.50;99.90;;;;;;5012611;28;20026;-45
2023/08/12 10:15:06;;;;;;;7.65;4.53;;;26.10;99.90;;;;;;5011725;28;20046;-48
2023/08/12 10:17:33;;;;;;;6.07;4.82;;;25.70;99.90;;;;;;5011119;28;20050;-44
2023/08/12 10:20:04;;;;;;;13.20;5.50;;;25.30;99.90;;;;;;5011591;28;20092;-44
2023/08/12 10:22:30;;;;;;;8.23;6.00;;;25.00;99.90;;;;;;4994804;28;20053;-44
2023/08/12 10:24:58;;;;;;;10.02;5.70;;;24.60;99.90;;;;;;5011889;28;20022;-53
2023/08/12 10:27:25;;;;;;;8.15;5.47;;;24.30;99.90;;;;;;5011203;28;20029;-48
2023/08/12 10:29:51;;;;;;;9.82;5.05;;;23.90;99.90;;;;;;5011434;28;20448;-45
2023/08/12 10:32:16;;;;;;;7.20;5.30;;;23.60;99.90;;;;;;5000535;28;20034;-48
2023/08/12 10:34:42;;;;;;;9.25;4.70;;;23.50;99.90;;;;;;4991833;28;20031;-47
2023/08/12 10:37:10;;;;;;;7.45;4.70;;;23.40;99.90;;;;;;4974167;28;20113;-51
2023/08/12 10:39:36;;;;;;;6.78;3.90;;;23.20;99.90;;;;;;4991818;28;20033;-43
2023/08/12 10:42:02;;;;;;;4.85;3.55;;;23.10;99.90;;;;;;4999974;28;20026;-48
2023/08/12 10:44:40;;;;;;;6.32;3.80;;;23.00;99.90;;;;;;5011267;28;20029;-45
2023/08/12 10:47:10;;;;;;;5.50;3.47;;;22.90;99.90;;;;;;5010739;28;20217;-50
2023/08/12 10:49:39;;;;;;;4.03;3.25;;;22.90;99.90;;;;;;4995957;28;20076;-43
2023/08/12 10:52:04;;;;;;;6.10;3.45;;;22.80;99.90;;;;;;5011066;28;20438;-47
2023/08/12 10:54:30;;;;;;;5.45;3.72;;;22.80;99.90;;;;;;5010983;28;20113;-52
2023/08/12 10:57:08;;;;;;;8.07;4.00;;;22.60;99.90;;;;;;5001236;28;20026;-47
2023/08/12 10:59:46;;;;;;;6.85;3.60;;;22.60;99.90;;;;;;4992807;28;20058;-52
2023/08/12 11:02:27;;;;;;;91.43;62.85;;;22.60;99.90;;;;;;5011051;28;20029;-52
2023/08/12 11:04:58;;;;;;;5.75;4.47;;;22.50;99.90;;;;;;5010971;28;20519;-52
2023/08/12 11:07:44;;;;;;;8.57;4.60;;;22.50;99.90;;;;;;4996517;28;20037;-50
2023/08/12 11:10:12;;;;;;;6.55;3.78;;;22.50;99.90;;;;;;5014344;28;20504;-48
2023/08/12 11:12:39;;;;;;;4.65;3.45;;;22.50;99.90;;;;;;5014456;28;20030;-48
2023/08/12 11:15:05;;;;;;;4.13;3.10;;;22.50;99.90;;;;;;5014397;28;20080;-49
2023/08/12 11:17:41;;;;;;;3.60;3.30;;;22.50;99.90;;;;;;5014275;28;20025;-50
2023/08/12 11:20:09;;;;;;;5.57;3.10;;;22.60;99.90;;;;;;5014051;28;20536;-49
2023/08/12 11:22:40;;;;;;;5.25;3.30;;;22.50;99.90;;;;;;5014504;28;20026;-48
2023/08/12 11:25:08;;;;;;;5.82;3.40;;;22.50;99.90;;;;;;4996709;28;20073;-44
2023/08/12 11:27:41;;;;;;;3.90;3.17;;;22.50;99.90;;;;;;5014257;28;20018;-47
2023/08/12 11:30:08;;;;;;;4.63;3.78;;;22.50;99.90;;;;;;4996279;28;20030;-50
2023/08/12 11:32:34;;;;;;;5.78;3.35;;;22.40;99.90;;;;;;5013535;28;20018;-48
2023/08/12 11:34:59;;;;;;;8.70;4.10;;;22.30;99.90;;;;;;5013914;28;20038;-51
2023/08/12 11:37:25;;;;;;;5.82;3.10;;;22.40;99.90;;;;;;5013342;28;20022;-47
2023/08/12 11:39:53;;;;;;;8.75;3.60;;;22.30;99.90;;;;;;5013298;28;20034;-47
2023/08/12 11:42:19;;;;;;;3.83;3.38;;;22.20;99.90;;;;;;4996266;28;20113;-47
2023/08/12 11:44:44;;;;;;;5.07;3.50;;;22.20;99.90;;;;;;5013900;28;20058;-46
2023/08/12 11:47:10;;;;;;;6.07;3.80;;;22.10;99.90;;;;;;5014164;28;20489;-55
2023/08/12 11:49:35;;;;;;;5.78;3.08;;;22.00;99.90;;;;;;5013188;28;20122;-49
2023/08/12 11:52:01;;;;;;;4.10;2.85;;;22.00;99.90;;;;;;5013747;28;20033;-47
2023/08/12 11:54:27;;;;;;;3.92;3.63;;;21.90;99.90;;;;;;5013735;28;20026;-48
2023/08/12 11:56:53;;;;;;;4.63;3.35;;;21.80;99.90;;;;;;5012977;28;20033;-46
2023/08/12 11:59:21;;;;;;;5.10;3.15;;;21.80;99.90;;;;;;4995114;28;20390;-50
2023/08/12 12:01:48;;;;;;;3.50;2.75;;;21.80;99.90;;;;;;5013136;28;20501;-51
2023/08/12 12:04:15;;;;;;;3.42;2.88;;;21.90;99.90;;;;;;5013718;28;20160;-45
2023/08/12 12:06:41;;;;;;;4.80;3.28;;;21.90;99.90;;;;;;5002071;28;20072;-48
2023/08/12 12:09:09;;;;;;;4.50;2.90;;;22.00;99.90;;;;;;5031856;23;20069;-57
2023/08/12 12:11:39;;;;;;;4.20;3.42;;;22.00;99.90;;;;;;5012983;28;20050;-59
2023/08/12 12:14:07;;;;;;;2.88;2.60;;;21.90;99.90;;;;;;4995705;28;20030;-56
2023/08/12 12:16:39;;;;;;;3.47;2.97;;;21.90;99.90;;;;;;5013871;28;20022;-56
2023/08/12 12:19:05;;;;;;;4.15;2.70;;;21.90;99.90;;;;;;5013006;28;20029;-55
2023/08/12 12:21:39;;;;;;;3.33;2.92;;;21.80;99.90;;;;;;4995910;28;20060;-58
2023/08/12 12:24:05;;;;;;;5.93;2.22;;;21.90;99.90;;;;;;5013430;28;20049;-55
2023/08/12 12:26:32;;;;;;;4.10;2.38;;;21.90;99.90;;;;;;4995813;28;20030;-58
2023/08/12 12:28:57;;;;;;;3.45;2.13;;;21.90;99.90;;;;;;5013286;28;20405;-56
2023/08/12 12:31:23;;;;;;;2.47;2.17;;;21.90;99.90;;;;;;4995310;28;20026;-54
2023/08/12 12:33:49;;;;;;;2.15;2.03;;;22.00;99.90;;;;;;4995882;28;20021;-57
2023/08/12 12:36:14;;;;;;;3.30;2.47;;;22.10;99.90;;;;;;5013217;28;20092;-50
2023/08/12 12:38:40;;;;;;;2.28;1.85;;;22.20;99.90;;;;;;5012931;28;20113;-53